sensor_id;sensor_type;location;lat;lon;timestamp;pressure;altitude;pressure_sealevel;temperature;humidity
65614;BME280;52283;49.292;10.572;2023-06-04T00:00:08;96578.91;;;13.57;48.58
65614;BME280;52283;49.292;10.572;2023-06-04T00:02:36;96561.22;;;13.68;47.79
65614;BME280;52283;49.292;10.572;2023-06-04T00:05:03;96559.91;;;13.75;47.95
65614;BME280;52283;49.292;10.572;2023-06-04T00:07:30;96573.81;;;13.03;49.10
65614;BME280;52283;49.292;10.572;2023-06-04T00:09:57;96570.53;;;12.99;49.02
65614;BME280;52283;49.292;10.572;2023-06-04T00:12:23;96563.88;;;13.02;48.29
65614;BME280;52283;49.292;10.572;2023-06-04T00:14:49;96562.03;;;13.16;48.51
65614;BME280;52283;49.292;10.572;2023-06-04T00:17:16;96565.03;;;13.35;48.51
65614;BME280;52283;49.292;10.572;2023-06-04T00:19:44;96568.91;;;13.62;49.10
65614;BME280;52283;49.292;10.572;2023-06-04T00:22:10;96557.13;;;13.69;48.45
65614;BME280;52283;49.292;10.572;2023-06-04T00:24:37;96553.41;;;13.50;47.86
65614;BME280;52283;49.292;10.572;2023-06-04T00:27:06;96565.69;;;13.00;49.00
65614;BME280;52283;49.292;10.572;2023-06-04T00:29:33;96568.16;;;13.15;48.74
65614;BME280;52283;49.292;10.572;2023-06-04T00:31:59;96564.19;;;12.88;48.85
65614;BME280;52283;49.292;10.572;2023-06-04T00:34:26;96561.47;;;12.65;49.23
65614;BME280;52283;49.292;10.572;2023-06-04T00:36:54;96561.84;;;13.03;48.60
65614;BME280;52283;49.292;10.572;2023-06-04T00:39:20;96558.22;;;13.08;48.32
65614;BME280;52283;49.292;10.572;2023-06-04T00:41:47;96558.06;;;12.89;49.17
65614;BME280;52283;49.292;10.572;2023-06-04T00:44:13;96563.84;;;12.50;49.93
65614;BME280;52283;49.292;10.572;2023-06-04T00:46:39;96557.13;;;12.75;49.72
65614;BME280;52283;49.292;10.572;2023-06-04T00:49:06;96564.59;;;12.45;49.48
65614;BME280;52283;49.292;10.572;2023-06-04T00:51:32;96565.09;;;12.55;49.81
65614;BME280;52283;49.292;10.572;2023-06-04T00:54:02;96566.13;;;12.46;50.08
65614;BME280;52283;49.292;10.572;2023-06-04T00:56:34;96566.06;;;12.63;49.97
65614;BME280;52283;49.292;10.572;2023-06-04T00:59:02;96562.72;;;12.75;49.54
65614;BME280;52283;49.292;10.572;2023-06-04T01:01:34;96564.94;;;12.94;49.42
65614;BME280;52283;49.292;10.572;2023-06-04T01:04:08;96562.66;;;12.92;49.38
65614;BME280;52283;49.292;10.572;2023-06-04T01:06:38;96564.59;;;13.08;49.94
65614;BME280;52283;49.292;10.572;2023-06-04T01:09:07;96561.06;;;13.02;49.78
65614;BME280;52283;49.292;10.572;2023-06-04T01:11:35;96562.13;;;12.99;50.16
65614;BME280;52283;49.292;10.572;2023-06-04T01:14:02;96563.66;;;12.95;50.11
65614;BME280;52283;49.292;10.572;2023-06-04T01:16:33;96565.47;;;12.92;49.97
65614;BME280;52283;49.292;10.572;2023-06-04T01:19:01;96571.25;;;13.05;50.34
65614;BME280;52283;49.292;10.572;2023-06-04T01:21:29;96568.91;;;12.57;50.38
65614;BME280;52283;49.292;10.572;2023-06-04T01:23:57;96570.50;;;12.25;51.17
65614;BME280;52283;49.292;10.572;2023-06-04T01:26:30;96570.91;;;12.73;50.19
65614;BME280;52283;49.292;10.572;2023-06-04T01:28:57;96568.59;;;12.77;51.22
65614;BME280;52283;49.292;10.572;2023-06-04T01:31:25;96568.59;;;12.77;50.78
65614;BME280;52283;49.292;10.572;2023-06-04T01:33:52;96568.28;;;12.92;49.64
65614;BME280;52283;49.292;10.572;2023-06-04T01:36:19;96572.88;;;12.84;50.27
65614;BME280;52283;49.292;10.572;2023-06-04T01:38:45;96570.91;;;12.73;50.77
65614;BME280;52283;49.292;10.572;2023-06-04T01:41:12;96567.06;;;12.76;50.58
65614;BME280;52283;49.292;10.572;2023-06-04T01:43:40;96571.22;;;12.42;50.53
65614;BME280;52283;49.292;10.572;2023-06-04T01:46:06;96579.69;;;11.97;51.65
65614;BME280;52283;49.292;10.572;2023-06-04T01:48:32;96580.94;;;11.74;52.21
65614;BME280;52283;49.292;10.572;2023-06-04T01:50:59;96582.97;;;11.73;52.91
65614;BME280;52283;49.292;10.572;2023-06-04T01:53:26;96585.78;;;12.24;52.16
65614;BME280;52283;49.292;10.572;2023-06-04T01:55:52;96580.97;;;12.13;52.05
65614;BME280;52283;49.292;10.572;2023-06-04T01:58:19;96576.59;;;12.23;51.66
65614;BME280;52283;49.292;10.572;2023-06-04T02:00:53;96584.50;;;12.36;51.28
65614;BME280;52283;49.292;10.572;2023-06-04T02:03:21;96589.59;;;12.26;51.66
65614;BME280;52283;49.292;10.572;2023-06-04T02:05:48;96588.56;;;12.40;51.41
65614;BME280;52283;49.292;10.572;2023-06-04T02:08:14;96583.19;;;12.42;51.32
65614;BME280;52283;49.292;10.572;2023-06-04T02:10:44;96581.66;;;12.47;51.13
65614;BME280;52283;49.292;10.572;2023-06-04T02:13:11;96584.00;;;12.20;51.25
65614;BME280;52283;49.292;10.572;2023-06-04T02:15:37;96590.88;;;12.19;51.36
65614;BME280;52283;49.292;10.572;2023-06-04T02:18:13;96591.88;;;12.33;51.91
65614;BME280;52283;49.292;10.572;2023-06-04T02:20:41;96590.88;;;12.25;51.11
65614;BME280;52283;49.292;10.572;2023-06-04T02:23:08;96588.31;;;12.27;52.34
65614;BME280;52283;49.292;10.572;2023-06-04T02:25:35;96593.91;;;12.27;52.16
65614;BME280;52283;49.292;10.572;2023-06-04T02:28:01;96592.41;;;12.20;52.42
65614;BME280;52283;49.292;10.572;2023-06-04T02:30:27;96594.72;;;12.16;52.65
65614;BME280;52283;49.292;10.572;2023-06-04T02:32:54;96596.75;;;11.99;52.68
65614;BME280;52283;49.292;10.572;2023-06-04T02:35:22;96601.59;;;11.99;52.95
65614;BME280;52283;49.292;10.572;2023-06-04T02:37:50;96601.34;;;11.97;52.74
65614;BME280;52283;49.292;10.572;2023-06-04T02:40:16;96601.09;;;11.95;53.08
65614;BME280;52283;49.292;10.572;2023-06-04T02:42:43;96599.56;;;11.94;52.83
65614;BME280;52283;49.292;10.572;2023-06-04T02:45:11;96605.41;;;11.96;53.70
65614;BME280;52283;49.292;10.572;2023-06-04T02:47:37;96594.41;;;11.64;52.91
65614;BME280;52283;49.292;10.572;2023-06-04T02:50:05;96598.75;;;11.76;52.73
65614;BME280;52283;49.292;10.572;2023-06-04T02:52:33;96594.69;;;11.77;52.74
65614;BME280;52283;49.292;10.572;2023-06-04T02:55:02;96598.75;;;11.71;52.32
65614;BME280;52283;49.292;10.572;2023-06-04T02:57:29;96599.03;;;11.84;52.92
65614;BME280;52283;49.292;10.572;2023-06-04T02:59:55;96589.09;;;11.72;52.65
65614;BME280;52283;49.292;10.572;2023-06-04T03:02:22;96593.09;;;11.37;51.80
65614;BME280;52283;49.292;10.572;2023-06-04T03:04:48;96596.72;;;11.77;52.52
65614;BME280;52283;49.292;10.572;2023-06-04T03:07:16;96594.44;;;11.75;50.94
65614;BME280;52283;49.292;10.572;2023-06-04T03:09:49;96600.25;;;11.55;52.14
65614;BME280;52283;49.292;10.572;2023-06-04T03:12:15;96602.28;;;11.66;52.81
65614;BME280;52283;49.292;10.572;2023-06-04T03:14:42;96594.72;;;11.88;51.76
65614;BME280;52283;49.292;10.572;2023-06-04T03:17:09;96598.25;;;11.78;51.57
65614;BME280;52283;49.292;10.572;2023-06-04T03:19:36;96597.78;;;11.90;51.90
65614;BME280;52283;49.292;10.572;2023-06-04T03:22:04;96592.91;;;11.85;51.86
65614;BME280;52283;49.292;10.572;2023-06-04T03:24:33;96606.38;;;11.59;52.90
65614;BME280;52283;49.292;10.572;2023-06-04T03:27:03;96612.72;;;11.59;52.95
65614;BME280;52283;49.292;10.572;2023-06-04T03:29:30;96612.97;;;11.50;53.64
65614;BME280;52283;49.292;10.572;2023-06-04T03:31:57;96615.00;;;11.50;54.18
65614;BME280;52283;49.292;10.572;2023-06-04T03:34:23;96612.97;;;11.56;53.65
65614;BME280;52283;49.292;10.572;2023-06-04T03:36:50;96610.44;;;11.58;53.14
65614;BME280;52283;49.292;10.572;2023-06-04T03:39:16;96608.69;;;11.72;52.23
65614;BME280;52283;49.292;10.572;2023-06-04T03:41:43;96611.97;;;11.65;52.36
65614;BME280;52283;49.292;10.572;2023-06-04T03:44:12;96613.50;;;11.66;52.47
65614;BME280;52283;49.292;10.572;2023-06-04T03:46:39;96611.47;;;11.66;52.89
65614;BME280;52283;49.292;10.572;2023-06-04T03:49:05;96612.75;;;11.71;52.89
65614;BME280;52283;49.292;10.572;2023-06-04T03:51:32;96600.25;;;11.49;51.75
65614;BME280;52283;49.292;10.572;2023-06-04T03:53:59;96611.16;;;11.25;53.39
65614;BME280;52283;49.292;10.572;2023-06-04T03:56:27;96611.63;;;11.23;52.94
65614;BME280;52283;49.292;10.572;2023-06-04T03:58:53;96619.00;;;11.21;53.32
65614;BME280;52283;49.292;10.572;2023-06-04T04:01:21;96612.19;;;11.39;52.72
65614;BME280;52283;49.292;10.572;2023-06-04T04:03:48;96614.47;;;11.29;53.09
65614;BME280;52283;49.292;10.572;2023-06-04T04:06:15;96613.22;;;11.58;53.03
65614;BME280;52283;49.292;10.572;2023-06-04T04:08:43;96615.25;;;11.46;53.19
65614;BME280;52283;49.292;10.572;2023-06-04T04:11:09;96615.22;;;11.35;53.34
65614;BME280;52283;49.292;10.572;2023-06-04T04:13:36;96608.66;;;11.49;53.18
65614;BME280;52283;49.292;10.572;2023-06-04T04:16:02;96612.94;;;11.45;53.03
65614;BME280;52283;49.292;10.572;2023-06-04T04:18:33;96616.75;;;11.30;53.95
65614;BME280;52283;49.292;10.572;2023-06-04T04:21:00;96622.34;;;11.30;53.84
65614;BME280;52283;49.292;10.572;2023-06-04T04:23:26;96616.03;;;11.52;53.87
65614;BME280;52283;49.292;10.572;2023-06-04T04:25:53;96628.00;;;11.47;54.55
65614;BME280;52283;49.292;10.572;2023-06-04T04:28:21;96620.63;;;11.78;53.70
65614;BME280;52283;49.292;10.572;2023-06-04T04:30:48;96626.28;;;11.89;53.04
65614;BME280;52283;49.292;10.572;2023-06-04T04:33:14;96631.84;;;11.67;53.72
65614;BME280;52283;49.292;10.572;2023-06-04T04:35:44;96632.13;;;12.02;53.58
65614;BME280;52283;49.292;10.572;2023-06-04T04:38:10;96629.59;;;12.10;54.18
65614;BME280;52283;49.292;10.572;2023-06-04T04:40:38;96636.97;;;12.18;53.86
65614;BME280;52283;49.292;10.572;2023-06-04T04:43:04;96635.97;;;12.21;52.91
65614;BME280;52283;49.292;10.572;2023-06-04T04:45:31;96633.16;;;12.27;52.92
65614;BME280;52283;49.292;10.572;2023-06-04T04:47:57;96640.78;;;12.38;52.88
65614;BME280;52283;49.292;10.572;2023-06-04T04:50:24;96638.75;;;12.38;53.37
65614;BME280;52283;49.292;10.572;2023-06-04T04:52:51;96636.72;;;12.39;53.31
65614;BME280;52283;49.292;10.572;2023-06-04T04:55:18;96633.66;;;12.42;52.03
65614;BME280;52283;49.292;10.572;2023-06-04T04:57:44;96640.28;;;12.34;52.95
65614;BME280;52283;49.292;10.572;2023-06-04T05:00:12;96631.59;;;12.54;51.80
65614;BME280;52283;49.292;10.572;2023-06-04T05:02:39;96646.38;;;12.60;52.07
65614;BME280;52283;49.292;10.572;2023-06-04T05:05:06;96637.19;;;12.60;51.47
65614;BME280;52283;49.292;10.572;2023-06-04T05:07:33;96640.50;;;12.64;52.17
65614;BME280;52283;49.292;10.572;2023-06-04T05:10:00;96644.31;;;12.72;51.50
65614;BME280;52283;49.292;10.572;2023-06-04T05:12:29;96646.88;;;12.59;51.86
65614;BME280;52283;49.292;10.572;2023-06-04T05:14:56;96648.84;;;12.86;52.65
65614;BME280;52283;49.292;10.572;2023-06-04T05:17:22;96639.09;;;13.04;51.26
65614;BME280;52283;49.292;10.572;2023-06-04T05:19:55;96645.97;;;13.08;50.68
65614;BME280;52283;49.292;10.572;2023-06-04T05:22:30;96655.25;;;12.70;51.76
65614;BME280;52283;49.292;10.572;2023-06-04T05:24:57;96663.06;;;13.05;51.13
65614;BME280;52283;49.292;10.572;2023-06-04T05:27:25;96662.84;;;12.97;52.07
65614;BME280;52283;49.292;10.572;2023-06-04T05:29:53;96657.44;;;13.22;50.69
65614;BME280;52283;49.292;10.572;2023-06-04T05:32:19;96654.31;;;13.36;50.07
65614;BME280;52283;49.292;10.572;2023-06-04T05:34:48;96661.50;;;13.26;50.30
65614;BME280;52283;49.292;10.572;2023-06-04T05:37:14;96656.94;;;13.12;51.26
65614;BME280;52283;49.292;10.572;2023-06-04T05:39:41;96659.66;;;13.40;50.20
65614;BME280;52283;49.292;10.572;2023-06-04T05:42:08;96658.16;;;13.33;49.99
65614;BME280;52283;49.292;10.572;2023-06-04T05:44:36;96662.47;;;13.40;51.91
65614;BME280;52283;49.292;10.572;2023-06-04T05:47:02;96663.88;;;13.63;50.55
65614;BME280;52283;49.292;10.572;2023-06-04T05:49:29;96655.66;;;13.71;49.25
65614;BME280;52283;49.292;10.572;2023-06-04T05:51:55;96662.91;;;13.55;49.89
65614;BME280;52283;49.292;10.572;2023-06-04T05:54:22;96660.41;;;13.40;50.16
65614;BME280;52283;49.292;10.572;2023-06-04T05:56:48;96656.69;;;13.68;49.91
65614;BME280;52283;49.292;10.572;2023-06-04T05:59:15;96662.16;;;13.96;49.92
65614;BME280;52283;49.292;10.572;2023-06-04T06:01:42;96660.75;;;14.08;49.02
65614;BME280;52283;49.292;10.572;2023-06-04T06:04:09;96661.59;;;14.33;48.36
65614;BME280;52283;49.292;10.572;2023-06-04T06:06:37;96668.38;;;14.13;49.61
65614;BME280;52283;49.292;10.572;2023-06-04T06:09:04;96663.16;;;14.28;48.76
65614;BME280;52283;49.292;10.572;2023-06-04T06:11:31;96668.47;;;14.38;48.39
65614;BME280;52283;49.292;10.572;2023-06-04T06:13:57;96669.50;;;14.34;48.39
65614;BME280;52283;49.292;10.572;2023-06-04T06:16:23;96673.13;;;13.94;49.73
65614;BME280;52283;49.292;10.572;2023-06-04T06:18:51;96672.34;;;14.29;49.07
65614;BME280;52283;49.292;10.572;2023-06-04T06:21:18;96668.19;;;14.41;48.40
65614;BME280;52283;49.292;10.572;2023-06-04T06:23:44;96667.41;;;14.41;48.64
65614;BME280;52283;49.292;10.572;2023-06-04T06:26:11;96670.25;;;14.35;48.81
65614;BME280;52283;49.292;10.572;2023-06-04T06:28:39;96671.00;;;14.71;48.64
65614;BME280;52283;49.292;10.572;2023-06-04T06:31:06;96686.03;;;14.49;48.66
65614;BME280;52283;49.292;10.572;2023-06-04T06:33:34;96676.97;;;14.62;49.32
65614;BME280;52283;49.292;10.572;2023-06-04T06:36:03;96677.16;;;14.94;48.96
65614;BME280;52283;49.292;10.572;2023-06-04T06:38:30;96667.78;;;15.10;48.47
65614;BME280;52283;49.292;10.572;2023-06-04T06:40:56;96673.13;;;15.33;47.52
65614;BME280;52283;49.292;10.572;2023-06-04T06:43:23;96680.81;;;15.32;47.61
65614;BME280;52283;49.292;10.572;2023-06-04T06:45:49;96683.13;;;15.09;48.51
65614;BME280;52283;49.292;10.572;2023-06-04T06:48:16;96686.88;;;15.17;48.85
65614;BME280;52283;49.292;10.572;2023-06-04T06:50:43;96683.41;;;15.30;48.20
65614;BME280;52283;49.292;10.572;2023-06-04T06:53:10;96684.94;;;15.31;49.00
65614;BME280;52283;49.292;10.572;2023-06-04T06:55:37;96687.25;;;15.51;48.24
65614;BME280;52283;49.292;10.572;2023-06-04T06:58:04;96692.38;;;15.29;48.71
65614;BME280;52283;49.292;10.572;2023-06-04T07:00:30;96693.75;;;15.65;48.38
65614;BME280;52283;49.292;10.572;2023-06-04T07:02:56;96688.50;;;15.75;47.75
65614;BME280;52283;49.292;10.572;2023-06-04T07:05:23;96688.91;;;15.66;49.01
65614;BME280;52283;49.292;10.572;2023-06-04T07:07:49;96691.41;;;15.69;48.80
65614;BME280;52283;49.292;10.572;2023-06-04T07:10:18;96688.72;;;15.77;49.73
65614;BME280;52283;49.292;10.572;2023-06-04T07:12:45;96685.88;;;16.14;48.45
65614;BME280;52283;49.292;10.572;2023-06-04T07:15:11;96683.91;;;16.28;48.30
65614;BME280;52283;49.292;10.572;2023-06-04T07:17:38;96677.69;;;16.62;47.83
65614;BME280;52283;49.292;10.572;2023-06-04T07:20:06;96683.72;;;16.85;47.62
65614;BME280;52283;49.292;10.572;2023-06-04T07:22:33;96682.44;;;16.99;47.68
65614;BME280;52283;49.292;10.572;2023-06-04T07:25:00;96679.97;;;17.35;46.99
65614;BME280;52283;49.292;10.572;2023-06-04T07:27:27;96690.03;;;17.83;46.33
65614;BME280;52283;49.292;10.572;2023-06-04T07:29:54;96680.75;;;17.96;45.82
65614;BME280;52283;49.292;10.572;2023-06-04T07:32:21;96676.16;;;17.72;45.46
65614;BME280;52283;49.292;10.572;2023-06-04T07:34:47;96676.88;;;17.86;46.43
65614;BME280;52283;49.292;10.572;2023-06-04T07:37:14;96682.22;;;17.76;45.93
65614;BME280;52283;49.292;10.572;2023-06-04T07:39:40;96673.47;;;18.01;45.93
65614;BME280;52283;49.292;10.572;2023-06-04T07:42:07;96664.53;;;18.51;44.43
65614;BME280;52283;49.292;10.572;2023-06-04T07:44:36;96664.25;;;18.42;44.90
65614;BME280;52283;49.292;10.572;2023-06-04T07:47:03;96660.38;;;19.23;43.40
65614;BME280;52283;49.292;10.572;2023-06-04T07:49:30;96663.81;;;20.16;41.89
65614;BME280;52283;49.292;10.572;2023-06-04T07:51:56;96661.22;;;18.61;43.94
65614;BME280;52283;49.292;10.572;2023-06-04T07:54:22;96654.50;;;19.93;42.03
65614;BME280;52283;49.292;10.572;2023-06-04T07:56:49;96648.81;;;20.67;39.98
65614;BME280;52283;49.292;10.572;2023-06-04T07:59:21;96646.28;;;20.33;40.54
65614;BME280;52283;49.292;10.572;2023-06-04T08:01:49;96657.44;;;19.36;41.65
65614;BME280;52283;49.292;10.572;2023-06-04T08:04:16;96650.63;;;19.67;41.23
65614;BME280;52283;49.292;10.572;2023-06-04T08:06:42;96655.78;;;19.12;42.32
65614;BME280;52283;49.292;10.572;2023-06-04T08:09:10;96652.31;;;18.98;42.95
65614;BME280;52283;49.292;10.572;2023-06-04T08:11:37;96650.63;;;20.34;42.14
65614;BME280;52283;49.292;10.572;2023-06-04T08:14:03;96643.31;;;20.84;40.38
65614;BME280;52283;49.292;10.572;2023-06-04T08:16:31;96647.66;;;20.78;40.24
65614;BME280;52283;49.292;10.572;2023-06-04T08:18:58;96655.03;;;20.88;39.96
65614;BME280;52283;49.292;10.572;2023-06-04T08:21:25;96679.78;;;19.47;42.62
65614;BME280;52283;49.292;10.572;2023-06-04T08:23:52;96642.19;;;20.87;40.31
65614;BME280;52283;49.292;10.572;2023-06-04T08:26:18;96652.19;;;21.11;40.10
65614;BME280;52283;49.292;10.572;2023-06-04T08:28:47;96639.19;;;22.04;38.17
65614;BME280;52283;49.292;10.572;2023-06-04T08:31:13;96652.03;;;20.63;40.68
65614;BME280;52283;49.292;10.572;2023-06-04T08:33:40;96634.50;;;21.51;38.77
65614;BME280;52283;49.292;10.572;2023-06-04T08:36:08;96638.88;;;21.92;38.26
65614;BME280;52283;49.292;10.572;2023-06-04T08:38:34;96641.44;;;21.65;38.34
65614;BME280;52283;49.292;10.572;2023-06-04T08:41:06;96647.06;;;21.10;39.02
65614;BME280;52283;49.292;10.572;2023-06-04T08:43:36;96655.44;;;19.52;42.02
65614;BME280;52283;49.292;10.572;2023-06-04T08:46:05;96642.72;;;20.93;39.93
65614;BME280;52283;49.292;10.572;2023-06-04T08:48:34;96639.41;;;21.58;38.70
65614;BME280;52283;49.292;10.572;2023-06-04T08:51:02;96641.66;;;22.40;37.93
65614;BME280;52283;49.292;10.572;2023-06-04T08:53:31;96641.31;;;21.96;36.08
65614;BME280;52283;49.292;10.572;2023-06-04T08:55:59;96647.84;;;20.87;36.66
65614;BME280;52283;49.292;10.572;2023-06-04T08:58:26;96642.47;;;21.22;35.87
65614;BME280;52283;49.292;10.572;2023-06-04T09:00:55;96647.25;;;20.96;37.22
65614;BME280;52283;49.292;10.572;2023-06-04T09:03:22;96645.50;;;22.35;36.04
65614;BME280;52283;49.292;10.572;2023-06-04T09:05:50;96636.66;;;22.48;35.42
65614;BME280;52283;49.292;10.572;2023-06-04T09:08:19;96644.09;;;22.43;35.41
65614;BME280;52283;49.292;10.572;2023-06-04T09:10:48;96647.63;;;23.43;35.12
65614;BME280;52283;49.292;10.572;2023-06-04T09:13:17;96643.75;;;22.39;34.85
65614;BME280;52283;49.292;10.572;2023-06-04T09:15:45;96656.72;;;22.33;36.53
65614;BME280;52283;49.292;10.572;2023-06-04T09:18:11;96643.63;;;23.64;34.48
65614;BME280;52283;49.292;10.572;2023-06-04T09:20:38;96640.75;;;23.47;33.55
65614;BME280;52283;49.292;10.572;2023-06-04T09:23:12;96641.84;;;23.68;34.09
65614;BME280;52283;49.292;10.572;2023-06-04T09:25:42;96649.47;;;21.51;36.69
65614;BME280;52283;49.292;10.572;2023-06-04T09:28:10;96644.81;;;20.70;36.44
65614;BME280;52283;49.292;10.572;2023-06-04T09:30:36;96637.31;;;21.99;36.38
65614;BME280;52283;49.292;10.572;2023-06-04T09:33:06;96634.00;;;22.75;34.59
65614;BME280;52283;49.292;10.572;2023-06-04T09:35:33;96632.91;;;22.95;33.80
65614;BME280;52283;49.292;10.572;2023-06-04T09:37:59;96625.38;;;23.07;33.84
65614;BME280;52283;49.292;10.572;2023-06-04T09:40:35;96636.31;;;23.53;33.43
65614;BME280;52283;49.292;10.572;2023-06-04T09:43:02;96636.63;;;21.83;34.45
65614;BME280;52283;49.292;10.572;2023-06-04T09:45:31;96632.00;;;23.10;34.29
65614;BME280;52283;49.292;10.572;2023-06-04T09:47:57;96619.94;;;23.36;33.62
65614;BME280;52283;49.292;10.572;2023-06-04T09:50:29;96623.66;;;24.08;32.57
65614;BME280;52283;49.292;10.572;2023-06-04T09:52:56;96620.97;;;23.66;32.75
65614;BME280;52283;49.292;10.572;2023-06-04T09:55:23;96621.94;;;21.61;35.08
65614;BME280;52283;49.292;10.572;2023-06-04T09:57:51;96633.47;;;23.36;34.00
65614;BME280;52283;49.292;10.572;2023-06-04T10:00:19;96621.00;;;23.93;31.60
65614;BME280;52283;49.292;10.572;2023-06-04T10:02:51;96620.19;;;23.31;33.14
65614;BME280;52283;49.292;10.572;2023-06-04T10:05:22;96619.88;;;22.35;33.99
65614;BME280;52283;49.292;10.572;2023-06-04T10:07:51;96634.13;;;23.44;33.05
65614;BME280;52283;49.292;10.572;2023-06-04T10:10:20;96625.94;;;23.92;32.29
65614;BME280;52283;49.292;10.572;2023-06-04T10:12:50;96627.16;;;23.72;31.86
65614;BME280;52283;49.292;10.572;2023-06-04T10:15:18;96614.81;;;23.00;32.69
65614;BME280;52283;49.292;10.572;2023-06-04T10:17:47;96611.22;;;23.69;31.51
65614;BME280;52283;49.292;10.572;2023-06-04T10:20:16;96617.19;;;24.08;31.84
65614;BME280;52283;49.292;10.572;2023-06-04T10:22:45;96621.50;;;23.99;32.22
65614;BME280;52283;49.292;10.572;2023-06-04T10:25:12;96619.00;;;24.13;31.07
65614;BME280;52283;49.292;10.572;2023-06-04T10:27:39;96621.28;;;23.70;32.04
65614;BME280;52283;49.292;10.572;2023-06-04T10:30:07;96618.28;;;22.16;33.29
65614;BME280;52283;49.292;10.572;2023-06-04T10:32:34;96621.97;;;22.84;33.57
65614;BME280;52283;49.292;10.572;2023-06-04T10:35:03;96629.69;;;23.33;33.54
65614;BME280;52283;49.292;10.572;2023-06-04T10:37:34;96623.13;;;23.40;32.76
65614;BME280;52283;49.292;10.572;2023-06-04T10:40:00;96612.06;;;23.62;31.78
65614;BME280;52283;49.292;10.572;2023-06-04T10:42:37;96608.78;;;24.63;30.37
65614;BME280;52283;49.292;10.572;2023-06-04T10:45:05;96614.50;;;23.14;32.80
65614;BME280;52283;49.292;10.572;2023-06-04T10:47:33;96627.00;;;23.35;33.69
65614;BME280;52283;49.292;10.572;2023-06-04T10:50:09;96604.81;;;24.22;30.15
65614;BME280;52283;49.292;10.572;2023-06-04T10:52:38;96608.78;;;23.83;30.72
65614;BME280;52283;49.292;10.572;2023-06-04T10:55:06;96611.75;;;24.02;30.99
65614;BME280;52283;49.292;10.572;2023-06-04T10:57:33;96607.44;;;22.97;31.03
65614;BME280;52283;49.292;10.572;2023-06-04T11:00:00;96611.69;;;23.06;32.32
65614;BME280;52283;49.292;10.572;2023-06-04T11:02:28;96612.22;;;23.12;30.85
65614;BME280;52283;49.292;10.572;2023-06-04T11:04:59;96609.28;;;24.79;30.24
65614;BME280;52283;49.292;10.572;2023-06-04T11:07:27;96604.03;;;24.85;29.64
65614;BME280;52283;49.292;10.572;2023-06-04T11:09:55;96597.22;;;25.85;28.66
65614;BME280;52283;49.292;10.572;2023-06-04T11:12:21;96588.00;;;25.00;28.77
65614;BME280;52283;49.292;10.572;2023-06-04T11:14:54;96588.94;;;25.50;28.40
65614;BME280;52283;49.292;10.572;2023-06-04T11:17:21;96599.00;;;25.61;29.00
65614;BME280;52283;49.292;10.572;2023-06-04T11:19:48;96588.06;;;24.36;29.69
65614;BME280;52283;49.292;10.572;2023-06-04T11:22:14;96594.72;;;24.94;29.46
65614;BME280;52283;49.292;10.572;2023-06-04T11:24:41;96589.09;;;25.23;29.01
65614;BME280;52283;49.292;10.572;2023-06-04T11:27:09;96612.63;;;23.95;30.47
65614;BME280;52283;49.292;10.572;2023-06-04T11:29:36;96604.72;;;24.67;31.15
65614;BME280;52283;49.292;10.572;2023-06-04T11:32:03;96591.16;;;24.57;29.92
65614;BME280;52283;49.292;10.572;2023-06-04T11:34:30;96588.59;;;24.25;29.30
65614;BME280;52283;49.292;10.572;2023-06-04T11:37:07;96596.53;;;23.72;30.48
65614;BME280;52283;49.292;10.572;2023-06-04T11:39:35;96589.69;;;25.22;31.14
65614;BME280;52283;49.292;10.572;2023-06-04T11:42:04;96575.84;;;25.47;28.06
65614;BME280;52283;49.292;10.572;2023-06-04T11:44:34;96577.31;;;25.58;27.76
65614;BME280;52283;49.292;10.572;2023-06-04T11:47:00;96585.16;;;25.00;29.13
65614;BME280;52283;49.292;10.572;2023-06-04T11:49:27;96594.84;;;24.87;28.81
65614;BME280;52283;49.292;10.572;2023-06-04T11:51:54;96576.72;;;25.40;26.11
65614;BME280;52283;49.292;10.572;2023-06-04T11:54:21;96576.53;;;24.44;27.79
65614;BME280;52283;49.292;10.572;2023-06-04T11:56:49;96576.75;;;25.21;27.08
65614;BME280;52283;49.292;10.572;2023-06-04T11:59:17;96571.31;;;25.25;25.63
65614;BME280;52283;49.292;10.572;2023-06-04T12:01:46;96571.31;;;23.17;26.98
65614;BME280;52283;49.292;10.572;2023-06-04T12:04:14;96562.59;;;25.23;24.66
65614;BME280;52283;49.292;10.572;2023-06-04T12:06:51;96565.28;;;24.55;26.12
65614;BME280;52283;49.292;10.572;2023-06-04T12:09:20;96564.69;;;24.20;26.50
65614;BME280;52283;49.292;10.572;2023-06-04T12:11:46;96553.84;;;25.02;26.10
65614;BME280;52283;49.292;10.572;2023-06-04T12:14:16;96568.44;;;25.15;26.06
65614;BME280;52283;49.292;10.572;2023-06-04T12:16:44;96565.72;;;25.56;25.69
65614;BME280;52283;49.292;10.572;2023-06-04T12:19:21;96569.78;;;23.68;28.25
65614;BME280;52283;49.292;10.572;2023-06-04T12:21:59;96575.34;;;24.47;27.97
65614;BME280;52283;49.292;10.572;2023-06-04T12:24:26;96546.19;;;25.43;26.10
65614;BME280;52283;49.292;10.572;2023-06-04T12:27:01;96552.19;;;25.47;27.91
65614;BME280;52283;49.292;10.572;2023-06-04T12:29:28;96570.38;;;24.47;28.55
65614;BME280;52283;49.292;10.572;2023-06-04T12:32:02;96565.59;;;25.83;26.81
65614;BME280;52283;49.292;10.572;2023-06-04T12:34:31;96564.31;;;23.80;28.94
65614;BME280;52283;49.292;10.572;2023-06-04T12:36:58;96557.56;;;24.12;27.75
65614;BME280;52283;49.292;10.572;2023-06-04T12:39:24;96551.56;;;25.87;26.22
65614;BME280;52283;49.292;10.572;2023-06-04T12:41:51;96541.91;;;26.95;24.32
65614;BME280;52283;49.292;10.572;2023-06-04T12:44:17;96548.03;;;23.72;27.10
65614;BME280;52283;49.292;10.572;2023-06-04T12:46:44;96539.50;;;26.39;25.27
65614;BME280;52283;49.292;10.572;2023-06-04T12:49:10;96535.78;;;26.27;25.12
65614;BME280;52283;49.292;10.572;2023-06-04T12:51:38;96544.75;;;26.42;25.63